Time;durP1;ratioP1;P1;durP2;ratioP2;P2;SDS_P1;SDS_P2;PMS_P1;PMS_P2;Temp;Humidity;BMP_temperature;BMP_pressure;BME280_temperature;BME280_humidity;BME280_pressure;Samples;Min_cycle;Max_cycle;Signal;HPM_P1;HPM_P2
2024/03/22 00:00:11;;;;;;;29.52;27.83;;;;;;;-0.25;100.00;101567.03;5076313;28;20497;-71
2024/03/22 00:02:38;;;;;;;28.83;27.33;;;;;;;-0.39;100.00;101569.88;5082955;28;20393;-71
2024/03/22 00:05:06;;;;;;;33.10;31.20;;;;;;;-0.38;100.00;101568.91;5078821;28;20056;-71
2024/03/22 00:07:33;;;;;;;35.47;33.47;;;;;;;-0.38;100.00;101563.69;5087584;28;20047;-71
2024/03/22 00:09:59;;;;;;;33.97;31.45;;;;;;;-0.72;100.00;101558.34;5088808;28;20048;-71
2024/03/22 00:12:26;;;;;;;32.95;30.95;;;;;;;-0.35;100.00;101563.47;5088136;28;20055;-71
2024/03/22 00:14:54;;;;;;;29.75;28.02;;;;;;;-0.43;100.00;101564.97;5081521;28;20036;-70
2024/03/22 00:17:21;;;;;;;29.02;27.23;;;;;;;-0.50;100.00;101557.59;5083262;28;20052;-71
2024/03/22 00:19:47;;;;;;;32.88;30.73;;;;;;;-0.29;100.00;101565.63;5083269;28;20813;-71
2024/03/22 00:22:16;;;;;;;31.33;28.98;;;;;;;-0.02;100.00;101554.88;5088381;28;20101;-72
2024/03/22 00:24:42;;;;;;;28.30;26.70;;;;;;;-0.36;100.00;101563.59;5077074;28;20110;-71
2024/03/22 00:27:11;;;;;;;30.98;29.10;;;;;;;-0.76;100.00;101551.69;5084334;28;20036;-71
2024/03/22 00:29:37;;;;;;;31.23;29.42;;;;;;;-0.79;100.00;101553.69;5078258;28;20044;-70
2024/03/22 00:32:07;;;;;;;29.63;27.75;;;;;;;-0.63;100.00;101556.84;5088147;28;20435;-71
2024/03/22 00:34:34;;;;;;;28.25;26.55;;;;;;;-0.75;100.00;101555.16;5090468;28;20431;-72
2024/03/22 00:37:02;;;;;;;29.50;27.80;;;;;;;-0.57;100.00;101550.34;5064904;28;20043;-70
2024/03/22 00:39:29;;;;;;;31.45;29.63;;;;;;;-0.49;100.00;101548.00;5087376;28;20500;-70
2024/03/22 00:41:56;;;;;;;31.00;29.13;;;;;;;-0.96;100.00;101545.31;5088430;28;20134;-70
2024/03/22 00:44:22;;;;;;;29.38;27.50;;;;;;;-0.74;100.00;101554.19;5083423;28;20048;-70
2024/03/22 00:46:49;;;;;;;27.60;25.67;;;;;;;-0.97;100.00;101550.63;5074740;28;20816;-71
2024/03/22 00:49:15;;;;;;;32.70;30.65;;;;;;;-1.27;100.00;101561.47;5085926;28;20055;-70
2024/03/22 00:51:44;;;;;;;31.40;29.60;;;;;;;-1.19;100.00;101560.00;5087650;28;20051;-72
2024/03/22 00:54:10;;;;;;;29.35;27.73;;;;;;;-1.25;100.00;101555.22;5087586;28;20087;-72
2024/03/22 00:56:38;;;;;;;30.42;28.70;;;;;;;-1.18;100.00;101556.47;5087119;28;20101;-73
2024/03/22 00:59:04;;;;;;;30.73;29.02;;;;;;;-1.36;100.00;101549.09;5084528;28;20537;-71
2024/03/22 01:01:31;;;;;;;30.27;28.58;;;;;;;-1.26;100.00;101558.78;5079999;28;20051;-71
2024/03/22 01:03:57;;;;;;;29.38;27.63;;;;;;;-1.30;100.00;101565.16;5087704;28;20047;-72
2024/03/22 01:06:27;;;;;;;26.45;24.95;;;;;;;-1.47;100.00;101565.50;5079076;28;20048;-71
2024/03/22 01:08:58;;;;;;;29.25;27.25;;;;;;;-1.08;100.00;101566.22;5087914;28;20134;-72
2024/03/22 01:11:27;;;;;;;28.60;26.83;;;;;;;-0.84;100.00;101567.06;5082318;28;20055;-71
2024/03/22 01:13:54;;;;;;;27.73;26.13;;;;;;;-1.30;100.00;101559.94;5083217;28;20101;-71
2024/03/22 01:16:21;;;;;;;29.92;27.80;;;;;;;-0.62;100.00;101558.50;5083966;28;20103;-71
2024/03/22 01:18:48;;;;;;;30.52;28.63;;;;;;;-0.30;100.00;101560.53;5086959;28;20089;-72
2024/03/22 01:21:15;;;;;;;31.98;29.98;;;;;;;-0.12;100.00;101566.13;5083781;28;20052;-73
2024/03/22 01:23:41;;;;;;;29.33;27.42;;;;;;;-0.12;100.00;101559.16;5081157;28;20059;-72
2024/03/22 01:26:08;;;;;;;29.17;27.38;;;;;;;-0.02;100.00;101552.28;5086818;28;20052;-74
2024/03/22 01:28:34;;;;;;;30.38;28.48;;;;;;;-0.18;100.00;101559.63;5083004;28;20482;-73
2024/03/22 01:31:03;;;;;;;28.35;26.55;;;;;;;0.08;100.00;101560.22;5091733;28;20060;-73
2024/03/22 01:33:29;;;;;;;28.13;26.42;;;;;;;0.05;100.00;101565.69;5078324;28;20060;-73
2024/03/22 01:35:56;;;;;;;29.75;27.95;;;;;;;0.17;100.00;101569.97;5083529;28;20113;-72
2024/03/22 01:38:22;;;;;;;30.83;28.65;;;;;;;0.37;100.00;101572.84;5084850;28;20048;-72
2024/03/22 01:40:49;;;;;;;30.20;28.30;;;;;;;0.09;100.00;101569.75;5087367;28;20048;-73
2024/03/22 01:43:15;;;;;;;30.00;27.55;;;;;;;0.37;100.00;101573.69;5088508;28;20468;-73
2024/03/22 01:45:42;;;;;;;31.55;29.20;;;;;;;0.32;100.00;101573.19;5088659;28;20423;-73
2024/03/22 01:48:11;;;;;;;29.73;27.85;;;;;;;0.36;100.00;101566.78;5090098;28;20561;-73
2024/03/22 01:50:39;;;;;;;28.70;26.83;;;;;;;0.57;100.00;101569.50;5080238;28;21259;-73
2024/03/22 01:53:05;;;;;;;30.58;28.67;;;;;;;0.63;100.00;101565.56;5090573;28;20052;-73
2024/03/22 01:55:32;;;;;;;31.02;29.13;;;;;;;0.55;100.00;101560.97;5087117;28;20734;-71
2024/03/22 01:57:58;;;;;;;34.85;32.85;;;;;;;0.40;100.00;101568.22;5083284;28;20060;-72
2024/03/22 02:00:26;;;;;;;33.50;31.40;;;;;;;0.29;100.00;101560.38;5079723;28;20067;-72
2024/03/22 02:02:52;;;;;;;31.48;29.65;;;;;;;0.30;100.00;101561.19;5081263;28;20131;-73
2024/03/22 02:05:21;;;;;;;31.15;29.25;;;;;;;0.33;100.00;101571.41;5089314;28;20624;-73
2024/03/22 02:07:47;;;;;;;33.17;30.92;;;;;;;0.40;100.00;101568.22;5088911;28;20048;-73
2024/03/22 02:10:16;;;;;;;35.00;32.70;;;;;;;0.20;100.00;101558.47;5089795;28;20462;-73
2024/03/22 02:12:42;;;;;;;36.60;34.20;;;;;;;0.61;100.00;101567.50;5088722;28;20474;-73
2024/03/22 02:15:10;;;;;;;35.20;32.28;;;;;;;0.81;100.00;101566.75;5090329;28;20135;-71
2024/03/22 02:17:37;;;;;;;35.72;33.53;;;;;;;1.06;100.00;101570.00;5090243;28;20051;-71
2024/03/22 02:20:06;;;;;;;36.10;33.90;;;;;;;0.95;100.00;101575.28;5086565;28;20058;-72
2024/03/22 02:22:33;;;;;;;34.22;31.92;;;;;;;0.99;100.00;101574.91;5086473;28;20138;-72
2024/03/22 02:25:02;;;;;;;34.75;32.65;;;;;;;1.03;100.00;101573.72;5090665;28;20075;-71
2024/03/22 02:27:28;;;;;;;36.90;34.58;;;;;;;1.04;100.00;101577.19;5090147;28;20669;-71
2024/03/22 02:29:55;;;;;;;34.25;32.05;;;;;;;1.08;100.00;101578.59;5080851;28;20137;-70
2024/03/22 02:32:21;;;;;;;37.22;34.83;;;;;;;1.17;100.00;101574.41;5089311;28;20047;-70
2024/03/22 02:34:48;;;;;;;35.58;33.47;;;;;;;1.03;100.00;101575.50;5085428;28;20052;-70
2024/03/22 02:37:16;;;;;;;35.55;33.40;;;;;;;1.08;100.00;101578.59;5081864;28;20500;-70
2024/03/22 02:39:48;;;;;;;35.95;33.65;;;;;;;1.48;100.00;101588.44;5090064;28;20055;-70
2024/03/22 02:42:16;;;;;;;38.03;35.35;;;;;;;1.66;100.00;101592.16;5088102;28;20105;-71
2024/03/22 02:44:43;;;;;;;33.22;31.23;;;;;;;1.90;100.00;101589.31;5076597;28;20140;-72
2024/03/22 02:47:10;;;;;;;33.05;30.75;;;;;;;1.82;100.00;101594.38;5089417;28;20070;-72
2024/03/22 02:49:37;;;;;;;38.67;35.65;;;;;;;1.80;100.00;101596.28;5087692;28;20123;-71
2024/03/22 02:52:03;;;;;;;34.50;32.30;;;;;;;1.72;100.00;101594.28;5087662;28;20786;-71
2024/03/22 02:54:30;;;;;;;30.80;28.80;;;;;;;1.69;100.00;101594.53;5085189;28;20051;-71
2024/03/22 02:56:58;;;;;;;33.05;31.00;;;;;;;1.12;100.00;101591.31;5085527;28;20056;-70
2024/03/22 02:59:28;;;;;;;34.50;32.50;;;;;;;1.17;100.00;101592.72;5078485;28;20048;-70
2024/03/22 03:01:54;;;;;;;36.10;33.90;;;;;;;0.86;100.00;101590.75;5079978;28;20114;-71
2024/03/22 03:04:22;;;;;;;32.55;30.45;;;;;;;1.24;100.00;101599.97;5082844;28;20064;-71
2024/03/22 03:06:48;;;;;;;30.73;28.77;;;;;;;1.35;100.00;101593.84;5088981;28;20059;-71
2024/03/22 03:09:15;;;;;;;34.28;32.08;;;;;;;1.22;100.00;101598.41;5084795;28;20958;-71
2024/03/22 03:11:41;;;;;;;36.72;34.47;;;;;;;1.31;100.00;101593.28;5075966;28;20106;-72
2024/03/22 03:14:08;;;;;;;32.38;30.58;;;;;;;1.28;100.00;101585.66;5082791;28;20055;-72
2024/03/22 03:16:36;;;;;;;32.63;30.52;;;;;;;1.37;100.00;101589.31;5081459;28;20136;-72
2024/03/22 03:19:03;;;;;;;30.08;28.17;;;;;;;1.48;100.00;101591.88;5081241;28;20037;-70
2024/03/22 03:21:29;;;;;;;35.13;32.05;;;;;;;1.44;100.00;101590.47;5087514;28;20044;-71
2024/03/22 03:23:56;;;;;;;34.08;31.88;;;;;;;1.54;100.00;101593.16;5088347;28;20482;-71
2024/03/22 03:26:24;;;;;;;30.15;27.80;;;;;;;1.23;100.00;101597.47;5089163;28;20051;-72
2024/03/22 03:28:51;;;;;;;29.45;27.45;;;;;;;1.44;100.00;101595.72;5085621;28;20044;-71
2024/03/22 03:31:17;;;;;;;30.63;28.63;;;;;;;1.44;100.00;101597.50;5081660;28;20052;-72
2024/03/22 03:33:45;;;;;;;35.88;33.03;;;;;;;1.35;100.00;101599.91;5089865;28;20412;-70
2024/03/22 03:36:11;;;;;;;28.90;27.00;;;;;;;1.61;100.00;101596.97;5084178;28;20052;-71
2024/03/22 03:38:38;;;;;;;29.20;27.30;;;;;;;1.72;100.00;101596.91;5087262;28;20109;-72
2024/03/22 03:41:04;;;;;;;32.50;30.08;;;;;;;1.76;100.00;101603.56;5083724;28;20056;-71
2024/03/22 03:43:33;;;;;;;29.27;27.38;;;;;;;1.91;100.00;101603.25;5087223;28;20078;-71
2024/03/22 03:45:59;;;;;;;29.50;27.50;;;;;;;1.86;100.00;101606.25;5087278;28;20051;-72
2024/03/22 03:48:27;;;;;;;30.40;28.17;;;;;;;1.65;100.00;101597.53;5082327;28;20048;-73
2024/03/22 03:50:55;;;;;;;29.90;27.92;;;;;;;2.03;100.00;101607.47;5085019;28;20048;-72
2024/03/22 03:53:22;;;;;;;29.80;27.90;;;;;;;1.88;100.00;101612.19;5087559;28;20060;-72
2024/03/22 03:55:48;;;;;;;31.60;29.27;;;;;;;1.83;100.00;101606.50;5089065;28;20048;-72
2024/03/22 03:58:17;;;;;;;29.55;27.58;;;;;;;1.77;100.00;101607.00;5085930;28;20071;-71
2024/03/22 04:00:44;;;;;;;29.95;27.95;;;;;;;1.69;100.00;101618.09;5075184;28;20063;-72
2024/03/22 04:03:11;;;;;;;27.65;25.85;;;;;;;1.58;100.00;101611.16;5086682;28;20075;-72
2024/03/22 04:05:37;;;;;;;31.40;29.30;;;;;;;1.69;100.00;101623.34;5085820;28;20768;-72
2024/03/22 04:08:06;;;;;;;30.38;28.08;;;;;;;1.58;100.00;101626.84;5086639;28;20508;-72
2024/03/22 04:10:32;;;;;;;29.33;27.33;;;;;;;1.58;100.00;101631.25;5088163;28;20469;-72
2024/03/22 04:12:59;;;;;;;28.05;26.25;;;;;;;1.54;100.00;101629.84;5089681;28;20055;-72
2024/03/22 04:15:28;;;;;;;26.85;25.05;;;;;;;1.74;100.00;101633.44;5086952;28;20056;-72
2024/03/22 04:17:57;;;;;;;26.65;24.58;;;;;;;1.95;100.00;101643.97;5085569;28;20412;-72
2024/03/22 04:20:23;;;;;;;23.35;21.75;;;;;;;1.78;100.00;101635.69;5085385;28;20055;-72
2024/03/22 04:22:52;;;;;;;33.20;30.92;;;;;;;1.95;100.00;101643.97;5084235;28;20047;-71
2024/03/22 04:25:19;;;;;;;29.38;27.48;;;;;;;1.87;100.00;101649.81;5083197;28;20048;-71
2024/03/22 04:27:46;;;;;;;29.98;28.08;;;;;;;1.87;100.00;101646.38;5088279;28;20051;-71
2024/03/22 04:30:12;;;;;;;55.03;50.60;;;;;;;2.02;100.00;101648.53;5082726;28;20105;-72
2024/03/22 04:32:39;;;;;;;31.55;29.25;;;;;;;2.13;100.00;101649.47;4725080;28;9999795;-71
2024/03/22 04:35:06;;;;;;;31.80;29.90;;;;;;;1.99;100.00;101640.94;5089291;28;20040;-70
2024/03/22 04:37:33;;;;;;;30.17;28.33;;;;;;;2.09;100.00;101650.66;5075948;28;20062;-70
2024/03/22 04:40:00;;;;;;;29.83;27.80;;;;;;;1.89;100.00;101658.38;5084544;28;20113;-71
2024/03/22 04:42:29;;;;;;;28.38;26.55;;;;;;;1.91;100.00;101653.88;5080311;28;20055;-72
2024/03/22 04:44:57;;;;;;;29.75;27.85;;;;;;;1.84;100.00;101652.69;5073628;28;20044;-72
2024/03/22 04:47:23;;;;;;;28.58;26.67;;;;;;;2.15;100.00;101655.38;5074678;28;20048;-73
2024/03/22 04:49:50;;;;;;;26.60;24.80;;;;;;;2.00;100.00;101658.34;5084365;28;20050;-73
2024/03/22 04:52:16;;;;;;;30.08;28.08;;;;;;;2.03;100.00;101658.09;5081238;28;20136;-72
2024/03/22 04:54:43;;;;;;;27.65;25.85;;;;;;;2.04;100.00;101666.78;5083157;28;20052;-72
2024/03/22 04:57:09;;;;;;;30.45;28.55;;;;;;;2.38;100.00;101654.28;5078641;28;20654;-72
2024/03/22 04:59:38;;;;;;;25.70;24.10;;;;;;;2.00;100.00;101657.50;5082592;28;20127;-71
2024/03/22 05:02:04;;;;;;;30.10;28.02;;;;;;;2.40;100.00;101673.34;5083357;28;20056;-72
2024/03/22 05:04:31;;;;;;;29.20;26.65;;;;;;;2.22;100.00;101669.66;5084974;28;20076;-72
2024/03/22 05:06:57;;;;;;;26.65;24.85;;;;;;;2.19;100.00;101675.16;5079856;28;20500;-73
2024/03/22 05:09:24;;;;;;;29.48;27.52;;;;;;;2.64;100.00;101662.59;5084390;28;20154;-71
2024/03/22 05:11:50;;;;;;;30.33;27.75;;;;;;;2.71;100.00;101668.97;5088711;28;20806;-73
2024/03/22 05:14:19;;;;;;;27.92;26.02;;;;;;;2.57;100.00;101671.09;5083263;28;20146;-72
2024/03/22 05:16:46;;;;;;;26.02;24.42;;;;;;;2.56;100.00;101670.25;5084684;28;20073;-71
2024/03/22 05:19:13;;;;;;;27.25;25.55;;;;;;;2.40;100.00;101669.91;5088026;28;20048;-71
2024/03/22 05:21:39;;;;;;;27.23;25.02;;;;;;;2.40;100.00;101659.44;5086866;28;20052;-71
2024/03/22 05:24:07;;;;;;;27.42;25.55;;;;;;;2.71;100.00;101668.97;5081510;28;20044;-70
2024/03/22 05:26:36;;;;;;;26.58;24.77;;;;;;;2.68;100.00;101666.59;5087944;28;20048;-72
2024/03/22 05:29:04;;;;;;;27.50;25.50;;;;;;;2.67;100.00;101675.44;5085589;28;20052;-71
2024/03/22 05:31:31;;;;;;;27.10;25.10;;;;;;;2.84;100.00;101678.41;5087199;28;20052;-71
2024/03/22 05:33:59;;;;;;;28.38;26.10;;;;;;;2.35;100.00;101674.69;5084460;28;20061;-70
2024/03/22 05:36:25;;;;;;;27.33;25.52;;;;;;;2.37;100.00;101678.03;5082258;28;20056;-70
2024/03/22 05:38:55;;;;;;;28.75;26.75;;;;;;;2.44;100.00;101672.13;5085167;28;20043;-71
2024/03/22 05:41:21;;;;;;;28.63;26.58;;;;;;;2.44;100.00;101682.63;5087310;28;20048;-71
2024/03/22 05:43:48;;;;;;;28.52;26.63;;;;;;;2.73;100.00;101687.22;4733512;28;9999969;-71
2024/03/22 05:46:15;;;;;;;27.10;25.30;;;;;;;2.89;100.00;101691.97;5084977;28;20052;-71
2024/03/22 05:48:41;;;;;;;29.65;27.75;;;;;;;2.71;100.00;101695.19;5085786;28;20082;-71
2024/03/22 05:51:10;;;;;;;29.45;27.55;;;;;;;2.86;100.00;101703.56;5088840;28;20503;-71
2024/03/22 05:53:36;;;;;;;30.83;28.70;;;;;;;2.83;100.00;101709.06;5082177;28;20498;-71
2024/03/22 05:56:04;;;;;;;29.83;27.73;;;;;;;2.50;100.00;101704.88;5083378;28;20053;-71
2024/03/22 05:58:30;;;;;;;30.48;28.48;;;;;;;2.61;100.00;101707.44;5078577;28;20044;-71
2024/03/22 06:00:58;;;;;;;32.72;30.50;;;;;;;2.91;100.00;101713.66;5083051;28;20052;-72
2024/03/22 06:03:24;;;;;;;29.70;27.60;;;;;;;2.66;100.00;101714.91;5072773;28;20060;-70
2024/03/22 06:05:55;;;;;;;30.15;27.95;;;;;;;2.37;100.00;101715.56;5080569;28;20071;-71
2024/03/22 06:08:22;;;;;;;32.97;30.52;;;;;;;2.59;100.00;101719.84;5087802;28;20172;-70
2024/03/22 06:10:49;;;;;;;30.27;28.17;;;;;;;2.50;100.00;101726.69;5083815;28;20496;-71
2024/03/22 06:13:17;;;;;;;29.35;27.35;;;;;;;2.74;100.00;101731.66;5076518;28;20051;-71
2024/03/22 06:15:45;;;;;;;30.10;28.00;;;;;;;2.63;100.00;101725.66;5088410;28;20052;-71
2024/03/22 06:18:12;;;;;;;29.83;27.60;;;;;;;2.90;100.00;101730.34;5089079;28;20048;-72
2024/03/22 06:20:38;;;;;;;31.45;29.25;;;;;;;3.21;100.00;101734.66;5079735;28;20060;-72
2024/03/22 06:23:05;;;;;;;32.60;30.20;;;;;;;2.86;100.00;101729.78;5079791;28;20074;-71
2024/03/22 06:25:33;;;;;;;33.08;30.67;;;;;;;2.78;100.00;101736.66;5082020;28;20052;-70
2024/03/22 06:28:00;;;;;;;31.77;29.58;;;;;;;2.87;100.00;101731.44;5087794;28;20144;-70
2024/03/22 06:30:27;;;;;;;33.28;31.08;;;;;;;3.01;100.00;101732.91;5085727;28;20135;-70
2024/03/22 06:32:54;;;;;;;33.45;30.92;;;;;;;3.19;100.00;101731.31;5073006;28;20125;-71
2024/03/22 06:35:20;;;;;;;34.15;31.75;;;;;;;3.42;100.00;101739.81;5088448;28;20059;-71
2024/03/22 06:37:48;;;;;;;34.47;31.88;;;;;;;3.14;100.00;101743.16;5081846;28;20048;-71
2024/03/22 06:40:15;;;;;;;37.53;35.03;;;;;;;3.45;100.00;101741.34;5080517;28;20424;-71
2024/03/22 06:42:43;;;;;;;39.40;36.70;;;;;;;3.52;100.00;101737.22;5088721;28;20055;-71
2024/03/22 06:45:10;;;;;;;40.40;37.60;;;;;;;3.76;100.00;101739.47;5084934;28;20060;-71
2024/03/22 06:47:37;;;;;;;37.70;35.22;;;;;;;3.02;100.00;101746.84;5079634;28;20059;-72
2024/03/22 06:50:03;;;;;;;40.33;37.35;;;;;;;3.74;100.00;101745.84;5082092;28;20405;-72
2024/03/22 06:52:32;;;;;;;40.10;37.42;;;;;;;3.65;100.00;101747.47;5082106;28;20539;-73
2024/03/22 06:54:58;;;;;;;40.10;37.40;;;;;;;3.47;100.00;101751.72;5085470;28;20093;-71
2024/03/22 06:57:25;;;;;;;41.97;39.08;;;;;;;3.85;100.00;101750.97;5089039;28;20049;-71
2024/03/22 06:59:53;;;;;;;40.95;38.30;;;;;;;3.60;100.00;101755.78;5088872;28;20121;-70
2024/03/22 07:02:20;;;;;;;41.15;38.45;;;;;;;3.37;100.00;101759.56;5083665;28;20885;-71
2024/03/22 07:04:46;;;;;;;42.20;39.35;;;;;;;4.01;100.00;101753.06;5087117;28;20091;-72
2024/03/22 07:07:13;;;;;;;42.30;39.25;;;;;;;4.20;100.00;101760.09;5084689;28;20063;-71
2024/03/22 07:09:39;;;;;;;42.03;39.08;;;;;;;3.68;100.00;101755.09;5089500;28;20056;-71
2024/03/22 07:12:07;;;;;;;44.30;41.30;;;;;;;4.50;100.00;101759.13;5088660;28;20056;-72
2024/03/22 07:14:33;;;;;;;44.33;41.53;;;;;;;4.13;100.00;101759.84;5088607;28;20113;-73
2024/03/22 07:17:01;;;;;;;42.55;39.85;;;;;;;4.29;100.00;101754.84;5089634;28;20052;-72
2024/03/22 07:19:28;;;;;;;42.90;40.10;;;;;;;4.77;100.00;101755.75;5089491;28;20048;-72
2024/03/22 07:21:55;;;;;;;45.83;43.03;;;;;;;4.98;100.00;101758.19;5076514;28;20059;-71
2024/03/22 07:24:23;;;;;;;44.30;41.58;;;;;;;4.82;100.00;101759.63;5082026;28;20848;-71
2024/03/22 07:26:50;;;;;;;43.92;41.13;;;;;;;5.03;100.00;101761.22;5088499;28;20427;-71
2024/03/22 07:29:17;;;;;;;44.78;41.67;;;;;;;4.76;100.00;101754.91;5087925;28;20128;-71
2024/03/22 07:31:44;;;;;;;48.47;45.47;;;;;;;5.48;100.00;101763.09;5079597;28;20435;-72
2024/03/22 07:34:11;;;;;;;50.38;47.40;;;;;;;5.23;100.00;101754.91;5088242;28;20055;-72
2024/03/22 07:36:39;;;;;;;51.00;48.00;;;;;;;4.50;100.00;101759.94;5087977;28;20051;-71
2024/03/22 07:39:06;;;;;;;52.78;49.47;;;;;;;4.58;100.00;101765.34;5082366;28;20113;-71
2024/03/22 07:41:33;;;;;;;52.90;49.50;;;;;;;5.12;100.00;101767.44;5080570;28;20055;-70
2024/03/22 07:44:00;;;;;;;47.30;44.50;;;;;;;4.82;100.00;101761.41;5084167;28;20128;-70
2024/03/22 07:46:27;;;;;;;45.80;42.88;;;;;;;5.10;100.00;101769.38;5088252;28;20113;-72
2024/03/22 07:48:53;;;;;;;53.67;50.28;;;;;;;4.98;100.00;101766.09;5082652;28;20551;-71
2024/03/22 07:51:22;;;;;;;59.72;55.83;;;;;;;5.21;100.00;101772.66;5087005;28;20512;-70
2024/03/22 07:53:48;;;;;;;57.05;53.45;;;;;;;5.36;100.00;101773.00;5083574;28;20054;-71
2024/03/22 07:56:15;;;;;;;52.35;49.05;;;;;;;4.46;100.00;101766.47;5081892;28;20053;-71
2024/03/22 07:58:43;;;;;;;56.80;52.88;;;;;;;4.95;100.00;101766.38;5071632;28;20039;-71
2024/03/22 08:01:10;;;;;;;47.58;44.45;;;;;;;4.40;100.00;101771.47;5078094;28;20059;-71
2024/03/22 08:03:36;;;;;;;51.00;47.55;;;;;;;5.70;100.00;101775.88;5082532;28;20048;-72
2024/03/22 08:06:03;;;;;;;54.03;50.38;;;;;;;5.83;100.00;101778.16;5087749;28;20064;-71
2024/03/22 08:08:31;;;;;;;46.38;42.85;;;;;;;4.88;100.00;101768.75;5082978;28;20478;-71
2024/03/22 08:10:58;;;;;;;50.70;47.38;;;;;;;5.99;100.00;101776.69;5082527;28;20063;-70
2024/03/22 08:13:24;;;;;;;49.33;46.13;;;;;;;5.57;100.00;101775.41;5079571;28;20048;-71
2024/03/22 08:15:51;;;;;;;60.95;56.97;;;;;;;6.19;100.00;101765.00;5087548;28;20044;-72
2024/03/22 08:18:17;;;;;;;53.25;49.88;;;;;;;5.97;100.00;101771.56;5088683;28;20105;-72
2024/03/22 08:20:44;;;;;;;56.08;52.47;;;;;;;5.80;100.00;101783.72;5088075;28;20052;-73
2024/03/22 08:23:10;;;;;;;57.00;53.33;;;;;;;5.76;100.00;101778.91;5085894;28;20113;-72
2024/03/22 08:25:39;;;;;;;45.85;42.90;;;;;;;7.20;100.00;101775.09;5076531;28;20052;-73
2024/03/22 08:28:05;;;;;;;42.75;40.05;;;;;;;6.64;100.00;101771.97;5085302;28;20052;-71
2024/03/22 08:30:32;;;;;;;54.95;51.55;;;;;;;6.96;100.00;101767.88;5080640;28;20056;-70
2024/03/22 08:32:58;;;;;;;51.60;48.50;;;;;;;6.82;100.00;101770.09;5085159;28;20052;-70
2024/03/22 08:35:25;;;;;;;47.50;44.50;;;;;;;6.81;100.00;101775.56;5073671;28;20565;-70
2024/03/22 08:37:52;;;;;;;47.22;44.22;;;;;;;6.30;100.00;101771.88;5077903;28;20102;-73
2024/03/22 08:40:19;;;;;;;47.40;44.45;;;;;;;7.40;100.00;101773.88;5081593;28;20056;-71
2024/03/22 08:42:50;;;;;;;48.30;45.40;;;;;;;7.03;100.00;101771.56;5092422;28;20650;-73
2024/03/22 08:45:17;;;;;;;52.58;49.13;;;;;;;8.58;100.00;101763.16;5092202;28;20044;-71
2024/03/22 08:47:45;;;;;;;42.30;39.70;;;;;;;9.00;100.00;101770.88;5085150;28;20131;-71
2024/03/22 08:50:12;;;;;;;40.17;37.42;;;;;;;7.08;100.00;101764.81;5092162;28;20047;-71
2024/03/22 08:52:38;;;;;;;38.97;36.40;;;;;;;7.55;100.00;101774.09;5092133;28;20052;-72
2024/03/22 08:55:07;;;;;;;39.80;37.28;;;;;;;9.50;100.00;101764.41;5092307;28;20146;-70
2024/03/22 08:57:33;;;;;;;41.35;39.15;;;;;;;10.76;100.00;101755.19;5091423;28;20048;-71
2024/03/22 09:00:01;;;;;;;48.20;45.60;;;;;;;10.57;100.00;101745.91;5087759;28;20501;-72
2024/03/22 09:02:27;;;;;;;45.30;43.00;;;;;;;10.59;100.00;101745.72;5092390;28;20098;-72
2024/03/22 09:04:55;;;;;;;52.95;50.13;;;;;;;9.67;100.00;101745.75;5089105;28;20059;-72
2024/03/22 09:07:23;;;;;;;47.25;44.85;;;;;;;10.26;100.00;101735.38;5091922;28;20048;-72
2024/03/22 09:09:50;;;;;;;45.50;42.90;;;;;;;10.60;100.00;101739.41;5087424;28;20088;-71
2024/03/22 09:12:16;;;;;;;42.90;40.50;;;;;;;10.57;100.00;101735.28;5079801;28;20722;-72
2024/03/22 09:14:44;;;;;;;45.40;42.90;;;;;;;10.11;100.00;101734.50;5087806;28;20052;-72
2024/03/22 09:17:11;;;;;;;34.78;32.78;;;;;;;12.50;100.00;101729.53;5080370;28;20055;-72
2024/03/22 09:19:38;;;;;;;35.55;33.15;;;;;;;11.89;100.00;101730.00;5087943;28;20044;-72
2024/03/22 09:22:04;;;;;;;39.70;37.30;;;;;;;11.24;100.00;101724.56;5072933;28;20528;-72
2024/03/22 09:24:32;;;;;;;37.55;35.35;;;;;;;11.05;100.00;101721.66;5080001;28;20074;-74
2024/03/22 09:26:58;;;;;;;45.42;42.72;;;;;;;11.73;100.00;101715.09;5088536;28;20052;-73
2024/03/22 09:29:26;;;;;;;39.95;37.55;;;;;;;10.29;100.00;101716.47;5088907;28;20055;-72
2024/03/22 09:31:52;;;;;;;45.47;42.40;;;;;;;11.97;100.00;101713.09;5088931;28;20052;-73
2024/03/22 09:34:20;;;;;;;47.33;44.47;;;;;;;12.50;100.00;101703.72;5090871;28;20141;-73
2024/03/22 09:36:46;;;;;;;39.97;37.53;;;;;;;11.38;100.00;101708.78;5090795;28;20048;-72
2024/03/22 09:39:14;;;;;;;41.40;39.10;;;;;;;12.71;100.00;101699.31;5090900;28;20088;-73
2024/03/22 09:41:43;;;;;;;46.45;43.50;;;;;;;12.19;100.00;101703.25;5088425;28;20128;-72
2024/03/22 09:44:14;;;;;;;40.22;37.92;;;;;;;11.66;100.00;101701.72;5088250;28;20057;-73
2024/03/22 09:46:42;;;;;;;37.65;35.22;;;;;;;11.86;100.00;101695.78;5090281;28;20097;-72
2024/03/22 09:49:11;;;;;;;41.42;38.97;;;;;;;14.46;100.00;101687.00;5091020;28;20055;-73
2024/03/22 09:51:39;;;;;;;37.38;35.28;;;;;;;12.06;100.00;101694.13;5089056;28;20131;-72
2024/03/22 09:54:06;;;;;;;37.60;35.30;;;;;;;13.02;100.00;101689.03;5088727;28;20113;-73
2024/03/22 09:56:33;;;;;;;37.53;35.22;;;;;;;13.05;100.00;101688.63;5090315;28;20474;-72
2024/03/22 09:59:00;;;;;;;39.50;37.00;;;;;;;11.06;100.00;101692.22;5084257;28;20048;-72
2024/03/22 10:01:27;;;;;;;40.78;38.30;;;;;;;11.96;100.00;101688.31;5078301;28;20055;-71
2024/03/22 10:03:55;;;;;;;38.42;35.83;;;;;;;10.64;100.00;101676.94;5090352;28;20139;-71
2024/03/22 10:06:22;;;;;;;39.90;37.30;;;;;;;10.82;100.00;101673.91;5090201;28;20056;-74
2024/03/22 10:08:51;;;;;;;36.15;33.85;;;;;;;12.43;100.00;101665.50;5085911;28;20132;-71
2024/03/22 10:11:17;;;;;;;45.92;42.80;;;;;;;12.54;100.00;101669.50;5089169;28;20124;-71
2024/03/22 10:13:46;;;;;;;40.45;37.95;;;;;;;10.44;100.00;101674.81;5088680;28;20094;-72
2024/03/22 10:16:12;;;;;;;40.63;38.08;;;;;;;13.40;100.00;101667.22;5088664;28;20439;-72
2024/03/22 10:18:43;;;;;;;41.15;38.45;;;;;;;14.23;100.00;101650.88;5087963;28;20044;-72
2024/03/22 10:21:09;;;;;;;42.03;39.22;;;;;;;13.96;100.00;101650.06;5086666;28;20135;-72
2024/03/22 10:23:36;;;;;;;40.42;37.85;;;;;;;14.05;100.00;101661.38;5077453;28;20110;-70
2024/03/22 10:26:04;;;;;;;49.30;46.20;;;;;;;14.00;100.00;101655.81;5079739;28;20440;-72
2024/03/22 10:28:32;;;;;;;45.47;42.58;;;;;;;14.22;100.00;101651.91;5082266;28;20167;-71
2024/03/22 10:30:59;;;;;;;50.17;47.17;;;;;;;14.53;100.00;101653.94;5083473;28;20053;-72
2024/03/22 10:33:27;;;;;;;51.53;48.20;;;;;;;13.09;100.00;101648.22;5073436;28;20068;-72
2024/03/22 10:35:54;;;;;;;41.70;38.65;;;;;;;13.34;100.00;101645.88;5083478;28;20281;-71
2024/03/22 10:38:22;;;;;;;40.60;38.20;;;;;;;13.30;100.00;101645.44;5082043;28;20044;-72
2024/03/22 10:40:48;;;;;;;38.85;36.35;;;;;;;13.25;100.00;101634.56;5084666;28;20056;-73
2024/03/22 10:43:18;;;;;;;41.53;38.65;;;;;;;13.33;100.00;101629.03;5088972;28;20052;-71
2024/03/22 10:45:48;;;;;;;41.30;38.55;;;;;;;13.21;100.00;101628.78;5084674;28;20044;-71
2024/03/22 10:48:18;;;;;;;40.45;37.75;;;;;;;14.39;100.00;101628.22;5077694;28;20056;-72
2024/03/22 10:50:44;;;;;;;39.42;36.92;;;;;;;13.77;100.00;101617.00;5073738;28;20055;-72
2024/03/22 10:53:18;;;;;;;39.58;37.08;;;;;;;14.67;100.00;101601.22;5082759;28;20052;-72
2024/03/22 10:55:46;;;;;;;40.80;38.10;;;;;;;14.85;100.00;101604.03;5083379;28;20110;-72
2024/03/22 10:58:18;;;;;;;43.72;40.83;;;;;;;15.16;100.00;101606.97;5084360;28;20055;-72
2024/03/22 11:00:44;;;;;;;40.10;37.50;;;;;;;15.39;100.00;101593.88;5083919;28;20078;-72
2024/03/22 11:03:11;;;;;;;37.35;34.95;;;;;;;13.09;100.00;101598.38;5083920;28;20048;-71
2024/03/22 11:05:45;;;;;;;36.88;34.58;;;;;;;14.28;100.00;101594.13;5070157;28;20588;-72